In Rescue
 
Open Full Screen Window  High Contrast Mode
Wind Gusting 00 knots
05
September 18, 2020 9:01 PM CDT
Weather Information
Wind Direction
  120 °
Wind Speed
  05 kt (6 mph)
Wind Gust
  00 kt (0 mph)
Altimeter
30.31 in
Visibility
10 SM
Temperature
10° C
50° F
Dewpoint
03° C
37° F
Humidity
62%
1hr Rain Fall
00.00 in.
24hr Rain Fall
00.00 in.
Sky Condition
Clear
VFR

METAR KBDH 190201Z AUTO 12005KT 10SM CLR 10/03 A3031 RMK AO2

FAA Disclaimer: The data displayed is for advisory purposes only and is not to be used for flight planning or operations.